Time;durP1;ratioP1;P1;durP2;ratioP2;P2;SDS_P1;SDS_P2;PMS_P1;PMS_P2;Temp;Humidity;BMP_temperature;BMP_pressure;BME280_temperature;BME280_humidity;BME280_pressure;Samples;Min_cycle;Max_cycle;Signal;HPM_P1;HPM_P2
2021/05/09 00:00:54;;;;;;;3.33;1.72;;;;;;;3.62;87.97;100351.47;1820871;78;21679;-74
2021/05/09 00:03:22;;;;;;;2.98;1.82;;;;;;;3.62;88.01;100344.96;1820868;78;21678;-75
2021/05/09 00:08:29;;;;;;;4.93;2.30;;;;;;;3.64;87.96;100345.83;1734548;79;61130;-73
2021/05/09 00:10:57;;;;;;;3.67;2.00;;;;;;;3.56;87.85;100353.21;1650483;86;21198;-73
2021/05/09 00:13:26;;;;;;;4.35;2.10;;;;;;;3.53;87.77;100357.14;1671451;85;21228;-72
2021/05/09 00:15:53;;;;;;;4.92;2.15;;;;;;;3.50;87.94;100351.96;1671730;85;21472;-73
2021/05/09 00:18:22;;;;;;;4.22;2.35;;;;;;;3.48;88.15;100361.52;1672711;85;21627;-72
2021/05/09 00:20:50;;;;;;;5.37;2.83;;;;;;;3.45;87.90;100360.23;1671775;85;21216;-73
2021/05/09 00:23:19;;;;;;;4.08;2.35;;;;;;;3.44;88.03;100361.53;1671674;85;21198;-74
2021/05/09 00:25:47;;;;;;;7.95;2.20;;;;;;;3.39;88.10;100361.55;1671803;85;21516;-72
2021/05/09 00:28:15;;;;;;;5.00;2.27;;;;;;;3.39;88.06;100366.76;1646251;85;21244;-71
2021/05/09 00:30:43;;;;;;;4.28;2.17;;;;;;;3.35;87.96;100363.28;1644241;87;21280;-73
2021/05/09 00:33:13;;;;;;;2.65;2.05;;;;;;;3.32;88.27;100362.45;1643948;87;21309;-74
2021/05/09 00:35:42;;;;;;;3.52;2.42;;;;;;;3.30;88.44;100362.89;1644264;87;21236;-73
2021/05/09 00:38:10;;;;;;;2.70;1.75;;;;;;;3.30;88.35;100364.19;1644196;87;21485;-74
2021/05/09 00:40:41;;;;;;;4.95;2.00;;;;;;;3.24;88.57;100372.01;1644440;87;21755;-73
2021/05/09 00:43:09;;;;;;;3.85;1.90;;;;;;;3.19;88.38;100364.66;1644377;87;21256;-74
2021/05/09 00:45:40;;;;;;;4.03;2.22;;;;;;;3.19;88.38;100364.66;1644720;87;21289;-76
2021/05/09 00:48:12;;;;;;;4.62;2.22;;;;;;;3.18;88.83;100372.05;1644342;87;21245;-76
2021/05/09 00:50:41;;;;;;;3.05;1.98;;;;;;;3.13;88.71;100375.52;1644518;87;21657;-76
2021/05/09 00:53:14;;;;;;;5.95;2.45;;;;;;;3.10;88.83;100374.66;1644263;87;21209;-76
2021/05/09 00:55:42;;;;;;;6.12;1.92;;;;;;;3.07;88.80;100377.27;1644472;87;21235;-75
2021/05/09 00:58:13;;;;;;;3.40;2.15;;;;;;;3.04;88.80;100380.75;1644388;87;21296;-74
2021/05/09 01:00:43;;;;;;;4.45;2.10;;;;;;;3.01;89.04;100378.13;1670017;85;21156;-76
2021/05/09 01:03:13;;;;;;;7.55;2.85;;;;;;;2.95;88.91;100376.87;1671643;85;21274;-70
2021/05/09 01:05:42;;;;;;;3.47;2.05;;;;;;;2.91;88.83;100373.39;1671893;85;21668;-74
2021/05/09 01:08:10;;;;;;;5.08;2.17;;;;;;;2.92;89.23;100380.75;1643818;86;21161;-73
2021/05/09 01:10:41;;;;;;;3.08;1.82;;;;;;;2.90;89.53;100385.98;1666499;85;21244;-74
2021/05/09 01:13:10;;;;;;;4.20;2.30;;;;;;;2.87;89.51;100385.97;1666288;84;21268;-73
2021/05/09 01:15:41;;;;;;;;;;;;;;;2.84;89.38;100386.42;1668739;84;21191;-73
2021/05/09 01:18:09;;;;;;;3.05;2.20;;;;;;;2.74;89.63;100392.08;1625229;85;20309;-74
2021/05/09 01:20:38;;;;;;;4.33;2.27;;;;;;;2.74;89.63;100392.08;1617415;88;21401;-74
2021/05/09 01:23:07;;;;;;;5.47;2.67;;;;;;;2.70;89.43;100396.84;1617232;88;22222;-73
2021/05/09 01:25:45;;;;;;;6.07;2.40;;;;;;;2.59;89.69;100403.34;1850889;77;22801;-73
2021/05/09 01:28:13;;;;;;;4.92;2.52;;;;;;;2.59;89.69;100403.34;1822867;78;21171;-73
2021/05/09 01:30:41;;;;;;;5.47;2.67;;;;;;;2.56;89.85;100405.09;1822879;78;21372;-73
2021/05/09 01:33:09;;;;;;;4.55;2.65;;;;;;;2.53;90.13;100412.42;1822822;78;21242;-72
2021/05/09 01:35:38;;;;;;;4.60;2.58;;;;;;;2.49;90.23;100410.72;1794185;78;21253;-72
2021/05/09 01:38:06;;;;;;;3.55;2.30;;;;;;;2.47;90.46;100418.94;1790348;80;21172;-73
2021/05/09 01:40:35;;;;;;;4.05;2.62;;;;;;;2.43;90.28;100415.90;1790633;80;21630;-73
2021/05/09 01:43:02;;;;;;;3.87;2.37;;;;;;;2.41;90.29;100421.09;1790498;80;21205;-73
2021/05/09 01:45:31;;;;;;;3.98;2.62;;;;;;;2.40;90.66;100425.00;1790647;80;21645;-72
2021/05/09 01:48:00;;;;;;;4.55;2.77;;;;;;;2.39;90.82;100428.45;1816884;77;21651;-73
2021/05/09 01:50:28;;;;;;;4.40;2.80;;;;;;;2.34;90.71;100431.05;1826509;78;21191;-74
2021/05/09 01:53:02;;;;;;;4.45;2.25;;;;;;;2.34;90.66;100430.19;1755540;80;21323;-74
2021/05/09 01:55:32;;;;;;;4.42;2.90;;;;;;;2.35;90.87;100437.10;1749853;80;21791;-73
2021/05/09 01:58:05;;;;;;;4.17;2.95;;;;;;;2.36;90.92;100434.95;1754996;81;21195;-76
2021/05/09 02:00:35;;;;;;;4.10;3.02;;;;;;;2.37;91.05;100443.17;1776376;80;21195;-77
2021/05/09 02:03:06;;;;;;;4.45;2.90;;;;;;;2.35;91.25;100448.39;1755747;81;21175;-77
2021/05/09 02:05:36;;;;;;;6.22;2.87;;;;;;;2.37;90.89;100454.88;1750043;82;21635;-78
2021/05/09 02:08:04;;;;;;;4.00;2.85;;;;;;;2.35;90.61;100455.30;1759517;81;21392;-77
2021/05/09 02:10:33;;;;;;;5.03;2.50;;;;;;;2.34;90.78;100453.58;1756882;80;21839;-77
2021/05/09 02:13:03;;;;;;;7.67;2.67;;;;;;;2.32;90.72;100458.77;1787512;80;21183;-77
2021/05/09 02:15:33;;;;;;;3.45;2.47;;;;;;;2.31;90.57;100459.64;1786737;80;21180;-76
2021/05/09 02:18:02;;;;;;;5.90;3.15;;;;;;;2.29;90.44;100471.32;1790086;80;21208;-74
2021/05/09 02:20:32;;;;;;;2.87;2.50;;;;;;;2.31;90.66;100472.20;1790810;80;21343;-76
2021/05/09 02:23:03;;;;;;;3.33;2.47;;;;;;;2.33;90.78;100473.51;1789616;80;21176;-75
2021/05/09 02:25:33;;;;;;;3.10;2.08;;;;;;;2.33;90.89;100477.84;1787296;79;21196;-76
2021/05/09 02:28:03;;;;;;;4.80;3.00;;;;;;;2.34;91.00;100476.97;1762152;80;21140;-75
2021/05/09 02:30:32;;;;;;;5.30;3.00;;;;;;;2.35;90.93;100482.59;1757012;81;21205;-74
2021/05/09 02:33:01;;;;;;;4.97;2.33;;;;;;;2.35;90.88;100482.59;1756404;81;21629;-75
2021/05/09 02:35:30;;;;;;;4.42;2.87;;;;;;;2.35;90.96;100487.38;1755717;81;21211;-77
2021/05/09 02:38:00;;;;;;;5.05;2.90;;;;;;;2.36;90.90;100489.09;1757967;81;22347;-78
2021/05/09 02:40:28;;;;;;;5.35;2.70;;;;;;;2.36;90.67;100490.84;1751654;80;21244;-74
2021/05/09 02:42:57;;;;;;;3.55;2.45;;;;;;;2.36;90.67;100490.84;1757936;81;21224;-74
2021/05/09 02:45:25;;;;;;;4.42;3.00;;;;;;;2.37;90.88;100497.76;1757996;81;21393;-73
2021/05/09 02:47:55;;;;;;;5.87;2.80;;;;;;;2.39;90.79;100502.53;1757236;81;21231;-71
2021/05/09 02:50:23;;;;;;;4.75;2.62;;;;;;;2.39;90.90;100503.83;1757994;81;21220;-73
2021/05/09 02:52:52;;;;;;;7.90;2.72;;;;;;;2.40;90.87;100512.08;1757885;81;21619;-76
2021/05/09 02:55:20;;;;;;;3.22;2.42;;;;;;;2.42;90.64;100518.16;1758021;81;21196;-75
2021/05/09 02:57:48;;;;;;;5.15;2.65;;;;;;;2.42;90.64;100518.16;1757885;81;21422;-73
2021/05/09 03:00:18;;;;;;;5.17;2.72;;;;;;;2.46;90.99;100526.38;1757575;81;21622;-74
2021/05/09 03:02:48;;;;;;;5.17;2.87;;;;;;;2.53;91.05;100533.32;1781810;80;21590;-75
2021/05/09 03:05:19;;;;;;;3.05;2.35;;;;;;;2.60;91.15;100537.70;1786248;80;21215;-75
2021/05/09 03:07:49;;;;;;;4.87;2.98;;;;;;;2.67;91.15;100536.84;1786108;80;21138;-75
2021/05/09 03:10:17;;;;;;;4.25;3.25;;;;;;;2.72;91.00;100540.31;1785966;80;21471;-74
2021/05/09 03:12:47;;;;;;;4.50;3.35;;;;;;;2.93;90.50;100554.21;1773854;80;21296;-75
2021/05/09 03:15:18;;;;;;;4.22;3.05;;;;;;;2.93;90.50;100554.21;1769343;80;21806;-74
2021/05/09 03:17:46;;;;;;;7.87;3.10;;;;;;;3.06;90.60;100557.67;1754735;81;21207;-75
2021/05/09 03:20:14;;;;;;;4.80;3.10;;;;;;;3.22;90.29;100563.75;1760722;80;21160;-75
2021/05/09 03:22:42;;;;;;;5.45;3.10;;;;;;;3.43;89.84;100562.46;1783528;78;21206;-75
2021/05/09 03:25:12;;;;;;;4.17;3.27;;;;;;;3.80;89.72;100555.88;1750302;81;21859;-73
2021/05/09 03:27:40;;;;;;;4.70;3.30;;;;;;;4.44;87.96;100565.20;1743730;81;21215;-71
2021/05/09 03:30:10;;;;;;;4.65;3.10;;;;;;;5.11;85.68;100563.91;1747726;81;21214;-73
2021/05/09 03:32:39;;;;;;;3.00;2.45;;;;;;;5.74;83.54;100567.25;1745809;80;21172;-74
2021/05/09 03:35:10;;;;;;;5.08;3.10;;;;;;;6.29;81.04;100575.81;1740932;80;21436;-74
2021/05/09 03:37:41;;;;;;;3.35;2.30;;;;;;;6.81;78.82;100578.61;1747388;81;21155;-75
2021/05/09 03:40:11;;;;;;;3.45;2.52;;;;;;;7.33;76.89;100572.58;1725293;81;21838;-74
2021/05/09 03:42:39;;;;;;;5.17;2.70;;;;;;;7.83;74.39;100577.84;1702175;83;21193;-69
2021/05/09 03:45:09;;;;;;;3.08;2.40;;;;;;;8.31;72.67;100581.71;1743809;81;21197;-71
2021/05/09 03:47:38;;;;;;;4.78;2.72;;;;;;;8.69;70.69;100581.36;1696869;84;21871;-70
2021/05/09 03:50:06;;;;;;;4.47;2.65;;;;;;;9.10;69.13;100582.19;1662618;84;21218;-71
2021/05/09 03:52:34;;;;;;;3.87;2.60;;;;;;;9.47;66.61;100590.03;1678684;85;21168;-70
2021/05/09 03:55:03;;;;;;;3.45;2.20;;;;;;;9.83;66.80;100584.27;1679046;85;21130;-70
2021/05/09 03:57:33;;;;;;;3.12;2.30;;;;;;;10.14;64.22;100588.69;1695491;82;21639;-69
2021/05/09 04:00:00;;;;;;;3.37;2.30;;;;;;;10.38;62.08;100582.38;1706672;83;21384;-71
2021/05/09 04:02:28;;;;;;;3.37;2.47;;;;;;;10.57;61.58;100590.59;1707293;83;21221;-71
2021/05/09 04:05:01;;;;;;;5.92;2.40;;;;;;;10.78;59.62;100594.34;1703320;82;21245;-71
2021/05/09 04:07:29;;;;;;;3.20;2.58;;;;;;;10.95;58.91;100593.81;1703221;84;21213;-70
2021/05/09 04:10:00;;;;;;;3.50;2.40;;;;;;;11.09;58.47;100597.77;1695761;84;21185;-71
2021/05/09 04:12:28;;;;;;;3.55;2.33;;;;;;;11.23;57.41;100591.19;1678879;85;21404;-71
2021/05/09 04:14:57;;;;;;;2.87;2.40;;;;;;;11.39;57.33;100591.53;1690491;82;21182;-71
2021/05/09 04:17:26;;;;;;;3.12;2.33;;;;;;;11.58;57.77;100597.08;1683042;82;21218;-71
2021/05/09 04:19:54;;;;;;;4.58;2.20;;;;;;;11.73;55.66;100588.19;1695001;84;21238;-71
2021/05/09 04:22:22;;;;;;;2.70;2.20;;;;;;;11.86;54.51;100584.64;1685094;82;21198;-71
2021/05/09 04:24:52;;;;;;;3.45;2.42;;;;;;;11.98;55.13;100593.08;1707651;83;21630;-71
2021/05/09 04:27:19;;;;;;;3.25;2.30;;;;;;;12.15;54.36;100607.88;1722767;83;21216;-72
2021/05/09 04:29:47;;;;;;;6.92;2.50;;;;;;;12.26;52.55;100618.91;1721945;83;21323;-70
2021/05/09 04:32:15;;;;;;;2.50;2.05;;;;;;;12.40;52.82;100613.13;1717198;83;21225;-70
2021/05/09 04:34:43;;;;;;;2.98;2.30;;;;;;;12.68;52.35;100614.27;1743889;82;21143;-70
2021/05/09 04:37:12;;;;;;;5.58;2.25;;;;;;;13.02;52.02;100619.55;1745023;82;21337;-72
2021/05/09 04:39:40;;;;;;;3.17;2.27;;;;;;;13.34;50.09;100616.13;1730973;81;21266;-71
2021/05/09 04:42:08;;;;;;;3.55;1.98;;;;;;;13.53;49.08;100609.16;1745032;82;21182;-71
2021/05/09 04:44:36;;;;;;;2.80;2.12;;;;;;;13.83;49.65;100620.71;1737851;82;21146;-71
2021/05/09 04:47:04;;;;;;;4.90;2.47;;;;;;;13.98;47.09;100625.33;1741764;82;21218;-71
2021/05/09 04:49:33;;;;;;;2.72;2.12;;;;;;;14.00;47.44;100628.77;1726263;82;21432;-71
2021/05/09 04:52:01;;;;;;;2.30;1.95;;;;;;;14.10;46.91;100632.34;1702385;84;21202;-72
2021/05/09 04:54:29;;;;;;;2.30;2.00;;;;;;;14.31;48.54;100630.53;1702353;84;21164;-71
2021/05/09 04:56:56;;;;;;;2.80;2.12;;;;;;;14.57;47.38;100635.56;1702255;84;21214;-71
2021/05/09 04:59:24;;;;;;;2.33;2.00;;;;;;;14.81;46.90;100636.22;1690869;84;21530;-71
2021/05/09 05:01:53;;;;;;;3.92;2.15;;;;;;;14.97;46.58;100647.44;1702364;84;22659;-72
2021/05/09 05:04:20;;;;;;;2.00;1.70;;;;;;;15.21;45.99;100647.61;1721745;83;21224;-72
2021/05/09 05:06:49;;;;;;;2.20;1.87;;;;;;;15.29;44.23;100648.09;1741877;82;21218;-72
2021/05/09 05:09:18;;;;;;;5.72;1.65;;;;;;;15.23;44.83;100648.41;1724781;82;21190;-72
2021/05/09 05:11:47;;;;;;;2.37;1.60;;;;;;;15.28;43.48;100654.34;1702295;84;21222;-70
2021/05/09 05:14:16;;;;;;;2.37;1.77;;;;;;;15.27;42.56;100649.95;1697771;83;21389;-73
2021/05/09 05:16:44;;;;;;;2.15;1.87;;;;;;;15.35;42.25;100649.60;1720311;83;21237;-71
2021/05/09 05:19:12;;;;;;;2.52;1.80;;;;;;;15.49;41.34;100652.44;1703541;81;21206;-70
2021/05/09 05:21:41;;;;;;;2.62;1.95;;;;;;;15.59;41.55;100647.52;1710271;83;21246;-71
2021/05/09 05:24:09;;;;;;;2.80;2.12;;;;;;;15.82;40.91;100646.87;1706332;83;21182;-71
2021/05/09 05:26:38;;;;;;;3.35;1.92;;;;;;;15.76;40.60;100652.48;1716905;81;21402;-70
2021/05/09 05:29:06;;;;;;;3.47;1.72;;;;;;;15.68;40.39;100655.03;1694428;84;21621;-71
2021/05/09 05:31:34;;;;;;;2.90;1.90;;;;;;;15.59;41.43;100664.78;1702017;84;21178;-71
2021/05/09 05:34:04;;;;;;;4.75;2.20;;;;;;;15.70;41.01;100665.14;1721114;83;21182;-72
2021/05/09 05:36:32;;;;;;;1.80;1.62;;;;;;;15.78;42.04;100659.91;1711323;83;21453;-72
2021/05/09 05:39:01;;;;;;;3.72;1.80;;;;;;;15.85;41.58;100672.83;1714732;83;21366;-71
2021/05/09 05:41:28;;;;;;;3.58;1.60;;;;;;;15.88;42.24;100670.48;1722988;83;21665;-71
2021/05/09 05:43:56;;;;;;;2.67;1.90;;;;;;;15.92;44.12;100673.38;1720545;83;21169;-74
2021/05/09 05:46:27;;;;;;;1.60;1.50;;;;;;;15.98;40.76;100673.05;1715054;83;21181;-72
2021/05/09 05:48:57;;;;;;;2.20;1.75;;;;;;;16.12;40.22;100672.34;1709070;81;21205;-72
2021/05/09 05:51:25;;;;;;;4.20;1.85;;;;;;;16.40;39.12;100670.43;1721381;82;21410;-72
2021/05/09 05:53:59;;;;;;;2.70;1.75;;;;;;;16.56;39.23;100675.35;1694493;84;21369;-72
2021/05/09 05:56:27;;;;;;;4.58;2.08;;;;;;;16.73;38.85;100671.77;1711070;83;21472;-73
2021/05/09 05:58:55;;;;;;;2.42;1.82;;;;;;;16.94;38.15;100668.45;1714108;83;21280;-71
2021/05/09 06:01:24;;;;;;;3.40;1.67;;;;;;;17.11;37.47;100683.95;1719753;83;21308;-80
2021/05/09 06:03:52;;;;;;;3.67;1.70;;;;;;;17.15;36.67;100680.17;1719300;83;21811;-72
2021/05/09 06:06:19;;;;;;;2.77;1.87;;;;;;;17.10;36.67;100680.91;1720820;83;21211;-71
2021/05/09 06:08:50;;;;;;;3.30;2.00;;;;;;;17.05;36.38;100684.31;1722500;83;21210;-72
2021/05/09 06:11:17;;;;;;;6.62;2.00;;;;;;;17.11;36.16;100686.61;1724336;83;21190;-75
2021/05/09 06:13:47;;;;;;;6.62;1.87;;;;;;;17.07;36.19;100685.05;1720330;83;21881;-71
2021/05/09 06:16:16;;;;;;;1.85;1.60;;;;;;;17.18;36.75;100690.64;1723934;83;21724;-75
2021/05/09 06:18:44;;;;;;;3.92;1.80;;;;;;;17.42;38.14;100687.58;1723427;83;21218;-75
2021/05/09 06:21:12;;;;;;;3.85;1.70;;;;;;;17.70;37.46;100689.50;1703499;83;21660;-73
2021/05/09 06:23:40;;;;;;;2.27;1.80;;;;;;;17.90;36.80;100685.69;1694007;84;21245;-73
2021/05/09 06:26:08;;;;;;;4.80;2.30;;;;;;;18.08;36.22;100686.42;1704167;81;21234;-73
2021/05/09 06:28:37;;;;;;;3.17;1.50;;;;;;;18.27;34.67;100687.05;1717451;83;21201;-74
2021/05/09 06:31:05;;;;;;;1.47;1.32;;;;;;;18.19;35.21;100695.48;1712019;83;21183;-73
2021/05/09 06:33:33;;;;;;;1.87;1.30;;;;;;;18.21;33.76;100691.41;1688094;83;21201;-72
2021/05/09 06:36:01;;;;;;;4.03;2.33;;;;;;;18.37;34.20;100686.86;1681127;84;21394;-72
2021/05/09 06:38:29;;;;;;;2.62;1.52;;;;;;;18.41;34.48;100684.88;1724767;83;21221;-72
2021/05/09 06:40:59;;;;;;;2.22;1.27;;;;;;;18.38;31.95;100691.71;1719616;81;23049;-72
2021/05/09 06:43:27;;;;;;;2.75;1.57;;;;;;;18.13;31.87;100690.55;1717626;81;21683;-72
2021/05/09 06:45:54;;;;;;;1.75;1.50;;;;;;;18.03;31.76;100690.69;1723434;81;21885;-73
2021/05/09 06:48:24;;;;;;;1.35;1.25;;;;;;;17.91;31.21;100694.09;1714083;81;21295;-72
2021/05/09 06:50:52;;;;;;;2.60;1.47;;;;;;;17.81;32.73;100690.63;1713166;81;21809;-72
2021/05/09 06:53:21;;;;;;;3.47;1.70;;;;;;;17.91;33.25;100689.61;1720547;81;21396;-73
2021/05/09 06:55:50;;;;;;;2.27;1.57;;;;;;;17.98;32.76;100702.95;1722429;81;21229;-72
2021/05/09 06:58:22;;;;;;;2.75;1.10;;;;;;;17.88;33.69;100694.28;1713523;81;21749;-73
2021/05/09 07:00:50;;;;;;;4.17;1.30;;;;;;;17.86;32.63;100706.34;1711186;81;21856;-72
2021/05/09 07:03:18;;;;;;;2.08;1.20;;;;;;;17.99;34.27;100703.80;1718006;81;21245;-74
2021/05/09 07:05:46;;;;;;;1.30;1.00;;;;;;;18.13;32.11;100702.98;1715533;81;21199;-73
2021/05/09 07:08:14;;;;;;;1.30;1.20;;;;;;;18.18;31.67;100710.27;1710855;81;21299;-73
2021/05/09 07:10:42;;;;;;;2.17;1.02;;;;;;;18.10;29.42;100704.03;1711174;81;21178;-75
2021/05/09 07:13:10;;;;;;;2.12;1.27;;;;;;;17.92;31.87;100707.33;1714543;82;21239;-74
2021/05/09 07:15:42;;;;;;;2.47;1.85;;;;;;;18.02;31.54;100708.97;1691853;84;21717;-73
2021/05/09 07:18:13;;;;;;;4.42;1.20;;;;;;;18.17;32.50;100705.37;1691471;84;21381;-74
2021/05/09 07:20:45;;;;;;;2.55;1.42;;;;;;;18.30;31.57;100704.67;1699503;83;21629;-73
2021/05/09 07:23:12;;;;;;;5.55;1.85;;;;;;;18.52;31.21;100702.42;1721403;83;21706;-73
2021/05/09 07:25:40;;;;;;;2.72;1.35;;;;;;;18.66;32.08;100705.09;1720071;83;21191;-75
2021/05/09 07:28:14;;;;;;;2.60;1.35;;;;;;;18.89;32.34;100705.97;1709680;83;21776;-74
2021/05/09 07:30:43;;;;;;;2.00;1.57;;;;;;;19.02;30.82;100699.76;1709914;83;21827;-73
2021/05/09 07:33:14;;;;;;;2.80;1.70;;;;;;;18.86;30.56;100704.35;1728031;83;21624;-73
2021/05/09 07:35:45;;;;;;;4.12;1.60;;;;;;;18.65;31.48;100704.69;1727747;83;21206;-73
2021/05/09 07:38:14;;;;;;;1.50;1.20;;;;;;;18.50;31.46;100704.80;1695684;84;21194;-72
2021/05/09 07:40:42;;;;;;;4.20;1.57;;;;;;;18.43;31.03;100714.50;1698531;84;21209;-73
2021/05/09 07:43:14;;;;;;;2.00;1.40;;;;;;;18.58;30.37;100714.51;1705052;84;22170;-74
2021/05/09 07:45:43;;;;;;;2.35;1.37;;;;;;;18.74;30.27;100706.42;1702914;81;21198;-73
2021/05/09 07:48:14;;;;;;;2.92;1.42;;;;;;;18.72;29.78;100713.66;1722912;81;21258;-73
2021/05/09 07:50:42;;;;;;;;;;;;;;;18.66;30.34;100710.43;1726532;81;21648;-74
2021/05/09 07:53:14;;;;;;;1.80;1.32;;;;;;;18.70;29.70;100706.22;1690992;81;20281;-74
2021/05/09 07:55:41;;;;;;;;;;;;;;;18.91;29.25;100694.72;1708918;81;21353;-73
2021/05/09 07:58:19;;;;;;;2.40;1.40;;;;;;;19.10;30.06;100705.97;1716841;81;20291;-73
2021/05/09 08:00:50;;;;;;;2.02;1.45;;;;;;;19.20;29.59;100707.56;1699451;81;21244;-72
2021/05/09 08:03:19;;;;;;;4.45;1.57;;;;;;;19.15;28.99;100701.67;1695968;81;21233;-73
2021/05/09 08:05:50;;;;;;;5.20;1.70;;;;;;;18.97;29.38;100708.54;1699333;81;21202;-75
2021/05/09 08:08:18;;;;;;;3.52;1.55;;;;;;;18.93;30.37;100709.68;1706113;84;21214;-75
2021/05/09 08:10:48;;;;;;;2.30;1.20;;;;;;;19.14;29.16;100702.16;1706222;81;21066;-73
2021/05/09 08:13:16;;;;;;;3.00;1.60;;;;;;;19.08;28.33;100708.72;1707125;81;21299;-74
2021/05/09 08:15:45;;;;;;;3.00;1.30;;;;;;;18.76;28.49;100702.70;1719634;81;21160;-73
2021/05/09 08:18:13;;;;;;;3.90;1.30;;;;;;;18.64;30.04;100705.66;1726822;83;21199;-74
2021/05/09 08:20:42;;;;;;;1.95;1.32;;;;;;;18.49;29.37;100702.59;1691454;83;21202;-74
2021/05/09 08:23:10;;;;;;;3.85;1.55;;;;;;;18.68;29.89;100702.34;1698533;82;21201;-74
2021/05/09 08:25:41;;;;;;;2.08;1.50;;;;;;;18.93;29.66;100704.34;1706585;84;21205;-73
2021/05/09 08:28:09;;;;;;;1.98;1.30;;;;;;;18.91;30.10;100711.61;1721526;83;21211;-74
2021/05/09 08:30:38;;;;;;;2.15;1.40;;;;;;;18.75;30.31;100709.46;1715724;81;21203;-68
2021/05/09 08:33:07;;;;;;;2.12;1.57;;;;;;;18.64;28.12;100702.99;1723689;82;22777;-74
2021/05/09 08:35:34;;;;;;;1.20;0.98;;;;;;;18.48;29.19;100700.89;1702668;84;21175;-74
2021/05/09 08:38:04;;;;;;;1.80;1.45;;;;;;;18.81;29.75;100699.78;1723659;83;21227;-74
2021/05/09 08:40:32;;;;;;;2.85;1.60;;;;;;;19.07;28.99;100687.45;1723508;82;21776;-75
2021/05/09 08:43:00;;;;;;;1.72;1.10;;;;;;;18.86;30.99;100704.35;1723675;83;21262;-71
2021/05/09 08:45:29;;;;;;;1.85;1.37;;;;;;;18.81;30.29;100699.78;1723649;83;21426;-74
2021/05/09 08:47:57;;;;;;;1.62;1.30;;;;;;;18.81;31.27;100677.11;1723600;83;21201;-71
2021/05/09 08:50:26;;;;;;;1.27;1.07;;;;;;;18.92;30.84;100691.97;1701073;83;21270;-70
2021/05/09 08:52:55;;;;;;;2.62;1.60;;;;;;;19.04;27.87;100695.19;1723652;83;21295;-70
2021/05/09 08:55:27;;;;;;;2.90;1.30;;;;;;;18.95;29.39;100689.09;1723503;83;21169;-70
2021/05/09 08:57:57;;;;;;;1.75;1.30;;;;;;;19.03;29.44;100693.48;1716216;83;21200;-72
2021/05/09 09:00:26;;;;;;;1.32;1.15;;;;;;;19.20;27.95;100695.55;1714125;81;21197;-70
2021/05/09 09:03:01;;;;;;;4.97;1.37;;;;;;;19.27;28.42;100700.88;1716862;81;21651;-72
2021/05/09 09:05:42;;;;;;;4.70;1.20;;;;;;;19.24;28.48;100694.41;1699056;83;21196;-72
2021/05/09 09:08:10;;;;;;;1.35;1.20;;;;;;;19.12;27.84;100696.05;1716255;81;21238;-70
2021/05/09 09:11:07;;;;;;;3.52;1.40;;;;;;;18.91;28.85;100697.39;1710487;81;21174;-72
2021/05/09 09:13:36;;;;;;;2.17;1.50;;;;;;;18.72;29.17;100705.66;1672100;84;21248;-72
2021/05/09 09:16:05;;;;;;;7.35;1.50;;;;;;;18.66;30.11;100705.58;1667804;86;21625;-72
2021/05/09 09:18:39;;;;;;;1.75;1.20;;;;;;;18.63;29.93;100705.30;1667594;84;21206;-71
2021/05/09 09:21:27;;;;;;;1.30;1.20;;;;;;;18.69;30.93;100695.19;1676792;84;21192;-71
2021/05/09 09:24:04;;;;;;;1.50;1.40;;;;;;;18.82;28.50;100697.52;1690353;84;21319;-71
2021/05/09 09:26:38;;;;;;;5.50;1.62;;;;;;;18.94;27.81;100679.88;1690932;84;21237;-70
2021/05/09 09:29:28;;;;;;;5.78;1.55;;;;;;;18.90;27.58;100706.36;1694368;84;21155;-84
2021/05/09 09:31:59;;;;;;;4.28;1.87;;;;;;;18.90;26.75;100688.53;1691800;83;21191;-81
2021/05/09 09:34:43;;;;;;;4.35;2.40;;;;;;;19.13;31.11;100690.23;1714889;82;21367;-79
2021/05/09 09:37:13;;;;;;;3.77;1.95;;;;;;;19.26;29.05;100700.51;1689198;84;21399;-82
2021/05/09 09:39:58;;;;;;;2.65;1.60;;;;;;;19.34;26.95;100707.53;1689258;84;21209;-81
2021/05/09 09:42:45;;;;;;;2.45;1.60;;;;;;;19.49;28.00;100700.36;1689156;84;21225;-82
2021/05/09 09:45:23;;;;;;;4.60;1.92;;;;;;;19.44;27.90;100706.00;1688863;84;21147;-81
2021/05/09 09:47:54;;;;;;;4.42;2.02;;;;;;;19.41;26.88;100702.17;1679103;84;21173;-82
2021/05/09 09:50:47;;;;;;;4.97;2.50;;;;;;;19.29;27.43;100714.50;1691162;83;21527;-79
2021/05/09 09:56:25;;;;;;;1.62;1.30;;;;;;;19.50;27.50;100705.58;1841373;76;22790;-82
2021/05/09 09:59:02;;;;;;;4.67;1.90;;;;;;;19.53;28.54;100706.34;1813363;79;21206;-81
2021/05/09 10:01:34;;;;;;;1.60;1.42;;;;;;;19.36;26.80;100708.30;1810816;78;21739;-81
2021/05/09 10:04:08;;;;;;;1.50;1.30;;;;;;;19.18;27.37;100702.80;1795292;79;21699;-80
2021/05/09 10:06:39;;;;;;;1.87;1.30;;;;;;;19.15;27.58;100711.02;1759994;79;21181;-76
2021/05/09 10:09:08;;;;;;;2.05;1.30;;;;;;;19.10;27.85;100707.78;1796249;79;22157;-73
2021/05/09 10:11:38;;;;;;;1.67;1.32;;;;;;;19.19;29.71;100712.55;1781652;78;21156;-74
2021/05/09 10:14:07;;;;;;;2.45;1.80;;;;;;;19.20;28.90;100717.77;1797548;79;22164;-72
2021/05/09 10:16:42;;;;;;;2.50;1.62;;;;;;;19.27;29.29;100719.08;1797083;78;21628;-71
2021/05/09 10:19:13;;;;;;;3.20;1.85;;;;;;;19.39;31.14;100719.25;1781250;80;21612;-73
2021/05/09 10:21:42;;;;;;;;;;;;;;;19.28;29.13;100719.48;1783878;79;21181;-73
2021/05/09 10:24:24;;;;;;;3.80;1.50;;;;;;;19.12;29.60;100719.20;1787563;79;20291;-72
2021/05/09 10:27:09;;;;;;;3.12;1.30;;;;;;;19.03;28.87;100721.52;1802185;79;21532;-74
2021/05/09 10:29:45;;;;;;;3.42;1.42;;;;;;;19.03;28.57;100736.19;1781210;80;21193;-74
2021/05/09 10:32:29;;;;;;;4.37;1.25;;;;;;;19.20;27.89;100723.59;1797123;78;21665;-73
2021/05/09 10:35:06;;;;;;;1.73;1.27;;;;;;;19.40;27.75;100724.50;1814120;78;21864;-75
2021/05/09 10:37:44;;;;;;;2.22;1.47;;;;;;;19.82;29.80;100725.35;1814320;79;21838;-74
2021/05/09 10:40:22;;;;;;;3.30;1.20;;;;;;;20.13;29.40;100724.66;1770231;79;21207;-72
2021/05/09 10:43:08;;;;;;;4.62;1.55;;;;;;;20.34;27.27;100725.02;1765987;81;21173;-74
2021/05/09 10:45:42;;;;;;;2.15;1.40;;;;;;;20.47;27.17;100723.67;1764937;81;21130;-74
2021/05/09 10:48:29;;;;;;;3.30;1.30;;;;;;;20.74;25.79;100719.59;1764647;81;21281;-73
2021/05/09 10:51:09;;;;;;;1.85;1.25;;;;;;;20.88;26.07;100737.36;1764905;81;21668;-73
2021/05/09 10:53:40;;;;;;;3.27;1.30;;;;;;;20.93;25.51;100723.16;1764943;81;21247;-74
2021/05/09 10:56:15;;;;;;;2.45;1.47;;;;;;;20.81;26.76;100713.33;1764705;79;21197;-72
2021/05/09 10:58:47;;;;;;;4.85;1.30;;;;;;;20.89;27.53;100713.62;1754128;81;21275;-73
2021/05/09 11:01:25;;;;;;;6.70;1.52;;;;;;;20.71;26.29;100725.17;1761823;81;21166;-73
2021/05/09 11:04:06;;;;;;;2.33;1.12;;;;;;;20.58;28.44;100731.84;1762317;81;21205;-73
2021/05/09 11:06:44;;;;;;;3.05;1.20;;;;;;;20.30;25.51;100723.02;1761983;81;22331;-73
2021/05/09 11:09:23;;;;;;;2.47;1.00;;;;;;;20.11;25.93;100725.23;1761760;81;21214;-74
2021/05/09 11:11:54;;;;;;;4.10;1.37;;;;;;;19.95;25.63;100720.55;1733370;81;21261;-71
2021/05/09 11:14:22;;;;;;;3.62;2.22;;;;;;;19.86;26.13;100734.89;1761912;81;21664;-74
2021/05/09 11:16:58;;;;;;;5.15;1.45;;;;;;;19.86;25.77;100726.02;1761688;81;21170;-73
2021/05/09 11:19:40;;;;;;;1.62;1.20;;;;;;;19.88;26.55;100716.94;1761744;81;21372;-73
2021/05/09 11:22:09;;;;;;;;;;;;;;;20.02;28.12;100704.47;1762758;81;21206;-71
2021/05/09 11:24:40;;;;;;;1.87;1.30;;;;;;;19.78;26.29;100718.48;1761627;81;20302;-73
2021/05/09 11:27:12;;;;;;;1.70;1.10;;;;;;;19.64;26.22;100730.54;1783067;79;21187;-73
2021/05/09 11:29:50;;;;;;;1.65;1.30;;;;;;;19.48;27.09;100722.17;1808078;79;21702;-73
2021/05/09 11:32:20;;;;;;;2.05;1.37;;;;;;;19.48;25.29;100728.85;1809613;79;22494;-72
2021/05/09 11:34:55;;;;;;;1.50;0.90;;;;;;;19.59;26.29;100722.83;1803858;79;21185;-72
2021/05/09 11:37:39;;;;;;;2.45;1.50;;;;;;;19.40;24.54;100712.48;1801587;79;21644;-72
2021/05/09 11:40:10;;;;;;;4.55;1.20;;;;;;;19.13;25.05;100719.11;1777484;79;21158;-74
2021/05/09 11:42:40;;;;;;;5.85;1.17;;;;;;;19.11;26.49;100734.84;1792707;77;21644;-74
2021/05/09 11:45:09;;;;;;;5.00;1.40;;;;;;;19.07;27.49;100723.49;1792052;79;21355;-73
2021/05/09 11:47:39;;;;;;;2.87;1.17;;;;;;;19.17;27.53;100719.78;1797892;79;21170;-73
2021/05/09 11:50:09;;;;;;;4.08;1.67;;;;;;;19.32;27.61;100713.45;1793416;79;21170;-74